Time;durP1;ratioP1;P1;durP2;ratioP2;P2;SDS_P1;SDS_P2;PMS_P1;PMS_P2;Temp;Humidity;BMP_temperature;BMP_pressure;BME280_temperature;BME280_humidity;BME280_pressure;Samples;Min_cycle;Max_cycle;Signal;HPM_P1;HPM_P2
2022/01/02 00:02:12;;;;;;;2.97;2.70;;;10.10;99.90;;;;;;5063528;28;20536;-71
2022/01/02 00:04:45;;;;;;;2.47;2.27;;;10.10;99.90;;;;;;5064357;28;20538;-72
2022/01/02 00:07:15;;;;;;;2.33;2.13;;;10.10;99.90;;;;;;5061894;28;20528;-70
2022/01/02 00:09:45;;;;;;;4.90;3.67;;;10.10;99.90;;;;;;5055579;28;20467;-71
2022/01/02 00:12:14;;;;;;;4.33;3.13;;;10.10;99.90;;;;;;5062665;28;20463;-72
2022/01/02 00:14:44;;;;;;;2.90;2.47;;;10.10;99.90;;;;;;5064403;28;20538;-71
2022/01/02 00:17:16;;;;;;;3.40;3.07;;;10.20;99.90;;;;;;5067005;28;20865;-68
2022/01/02 00:19:51;;;;;;;3.00;2.80;;;10.20;99.90;;;;;;5063956;28;20483;-71
2022/01/02 00:22:20;;;;;;;2.80;2.40;;;10.20;99.90;;;;;;5057178;28;20463;-71
2022/01/02 00:24:46;;;;;;;3.33;2.47;;;10.20;99.90;;;;;;5065872;28;20485;-69
2022/01/02 00:27:15;;;;;;;3.10;2.30;;;10.20;99.90;;;;;;5066344;28;20517;-72
2022/01/02 00:29:43;;;;;;;3.70;2.63;;;10.20;99.90;;;;;;5062473;28;20555;-71
2022/01/02 00:32:13;;;;;;;9.40;2.93;;;10.30;99.90;;;;;;5063831;28;20593;-70
2022/01/02 00:34:41;;;;;;;3.30;3.00;;;10.30;99.90;;;;;;5057174;28;20852;-69
2022/01/02 00:37:08;;;;;;;4.47;2.93;;;10.30;99.90;;;;;;5064086;28;20529;-69
2022/01/02 00:39:35;;;;;;;4.00;3.50;;;10.30;99.90;;;;;;5058353;28;20485;-69
2022/01/02 00:42:08;;;;;;;2.60;2.40;;;10.30;99.90;;;;;;5064901;28;20553;-69
2022/01/02 00:44:44;;;;;;;2.90;1.97;;;10.30;99.90;;;;;;5053329;28;20463;-69
2022/01/02 00:47:21;;;;;;;2.90;2.53;;;10.30;99.90;;;;;;5063485;28;20466;-69
2022/01/02 00:49:59;;;;;;;2.70;2.50;;;10.30;99.90;;;;;;5055285;28;20944;-69
2022/01/02 00:52:28;;;;;;;2.37;2.17;;;10.30;99.90;;;;;;5061465;28;20471;-69
2022/01/02 00:54:57;;;;;;;3.03;2.17;;;10.30;99.90;;;;;;5061758;28;20997;-70
2022/01/02 00:57:34;;;;;;;4.33;2.10;;;10.30;99.90;;;;;;5062017;28;20460;-70
2022/01/02 01:00:09;;;;;;;3.03;2.40;;;10.30;99.90;;;;;;5058977;28;20562;-70
2022/01/02 01:02:40;;;;;;;2.83;2.63;;;10.30;99.90;;;;;;5057152;28;20461;-69
2022/01/02 01:05:09;;;;;;;3.90;2.30;;;10.30;99.90;;;;;;5058202;28;20536;-70
2022/01/02 01:07:38;;;;;;;5.60;3.10;;;10.30;99.90;;;;;;5064481;28;20459;-70
2022/01/02 01:10:08;;;;;;;2.60;2.33;;;10.30;99.90;;;;;;5058382;28;21060;-69
2022/01/02 01:12:35;;;;;;;5.87;3.20;;;10.30;99.90;;;;;;5054212;28;20448;-69
2022/01/02 01:15:03;;;;;;;3.93;2.60;;;10.30;99.90;;;;;;5060562;28;20451;-69
2022/01/02 01:17:30;;;;;;;4.30;3.00;;;10.30;99.90;;;;;;5058686;28;20550;-68
2022/01/02 01:19:58;;;;;;;3.47;2.83;;;10.30;99.90;;;;;;5061634;28;20479;-71
2022/01/02 01:22:25;;;;;;;2.93;2.10;;;10.30;99.90;;;;;;5062762;28;20563;-70
2022/01/02 01:24:51;;;;;;;3.93;2.80;;;10.30;99.90;;;;;;5062660;28;20835;-70
2022/01/02 01:27:19;;;;;;;5.27;3.67;;;10.30;99.90;;;;;;5056759;28;20536;-69
2022/01/02 01:29:46;;;;;;;3.77;3.37;;;10.40;99.90;;;;;;5058038;28;20483;-69
2022/01/02 01:32:13;;;;;;;3.63;2.97;;;10.40;99.90;;;;;;5064426;28;20459;-69
2022/01/02 01:34:40;;;;;;;1.33;1.23;;;10.40;99.90;;;;;;5056935;28;20464;-69
2022/01/02 01:37:08;;;;;;;3.33;2.13;;;10.40;99.90;;;;;;5063954;28;20778;-70
2022/01/02 01:39:34;;;;;;;3.20;2.57;;;10.40;99.90;;;;;;5062045;28;20485;-69
2022/01/02 01:42:08;;;;;;;2.30;1.93;;;10.40;99.90;;;;;;5061350;28;21039;-70
2022/01/02 01:45:03;;;;;;;2.07;1.90;;;10.40;99.90;;;;;;5056159;28;20467;-70
2022/01/02 01:47:29;;;;;;;5.60;2.70;;;10.40;99.90;;;;;;5059188;28;20467;-69
2022/01/02 01:49:55;;;;;;;2.43;2.23;;;10.50;99.90;;;;;;5055218;28;20591;-69
2022/01/02 01:52:23;;;;;;;2.00;1.90;;;10.50;99.90;;;;;;5065128;28;20551;-71
2022/01/02 01:54:50;;;;;;;3.00;2.70;;;10.50;99.90;;;;;;5063301;28;20464;-69
2022/01/02 01:57:17;;;;;;;2.00;1.77;;;10.50;99.90;;;;;;5059880;28;20468;-69
2022/01/02 01:59:46;;;;;;;4.20;2.67;;;10.50;99.90;;;;;;5063380;28;20487;-69
2022/01/02 02:02:14;;;;;;;3.43;3.20;;;10.40;99.90;;;;;;5059433;28;20571;-69
2022/01/02 02:04:41;;;;;;;3.70;3.00;;;10.50;99.90;;;;;;5063444;28;20475;-69
2022/01/02 02:07:07;;;;;;;2.13;1.83;;;10.40;99.90;;;;;;5065725;28;20447;-69
2022/01/02 02:09:49;;;;;;;2.73;2.10;;;10.40;99.90;;;;;;5063510;28;20455;-69
2022/01/02 02:12:16;;;;;;;3.27;2.40;;;10.40;99.90;;;;;;5060269;28;20461;-70
2022/01/02 02:14:43;;;;;;;3.60;2.93;;;10.40;99.90;;;;;;5061056;28;20569;-70
2022/01/02 02:17:09;;;;;;;3.17;2.53;;;10.30;99.90;;;;;;5056676;28;20530;-70
2022/01/02 02:19:36;;;;;;;3.47;2.57;;;10.30;99.90;;;;;;5063731;28;20438;-71
2022/01/02 02:22:06;;;;;;;2.63;2.40;;;10.30;99.90;;;;;;5060789;28;20479;-70
2022/01/02 02:24:33;;;;;;;3.20;2.90;;;10.30;99.90;;;;;;5060306;28;20460;-71
2022/01/02 02:26:59;;;;;;;2.50;2.30;;;10.30;99.90;;;;;;5063313;28;20474;-72
2022/01/02 02:29:26;;;;;;;7.53;2.60;;;10.30;99.90;;;;;;5060521;28;20521;-72
2022/01/02 02:31:56;;;;;;;4.70;3.07;;;10.30;99.90;;;;;;5065340;28;20505;-70
2022/01/02 02:34:28;;;;;;;3.30;3.00;;;10.30;99.90;;;;;;5061053;28;20467;-69
2022/01/02 02:36:55;;;;;;;2.73;2.50;;;10.30;99.90;;;;;;5055101;28;20464;-71
2022/01/02 02:39:23;;;;;;;2.00;1.80;;;10.30;99.90;;;;;;5063548;28;20460;-70
2022/01/02 02:41:50;;;;;;;3.33;2.23;;;10.30;99.90;;;;;;5058512;28;21232;-70
2022/01/02 02:44:32;;;;;;;5.60;3.57;;;10.30;99.90;;;;;;5057936;28;20485;-70
2022/01/02 02:49:43;;;;;;;3.40;3.10;;;10.30;99.90;;;;;;5056214;28;20474;-70
2022/01/02 02:52:18;;;;;;;2.97;2.50;;;10.30;99.90;;;;;;5058824;28;20600;-70
2022/01/02 02:54:47;;;;;;;6.07;3.63;;;10.30;99.90;;;;;;5060095;28;20792;-71
2022/01/02 02:57:14;;;;;;;5.33;3.40;;;10.30;99.90;;;;;;5057985;28;20551;-71
2022/01/02 02:59:41;;;;;;;2.27;1.83;;;10.30;99.90;;;;;;5063021;28;20629;-71
2022/01/02 03:02:08;;;;;;;5.60;2.40;;;10.30;99.90;;;;;;5062797;28;20529;-70
2022/01/02 03:04:34;;;;;;;2.77;2.30;;;10.30;99.90;;;;;;5057354;28;20909;-70
2022/01/02 03:07:01;;;;;;;4.00;2.60;;;10.30;99.90;;;;;;5054289;28;20458;-71
2022/01/02 03:09:38;;;;;;;3.03;2.57;;;10.30;99.90;;;;;;5057154;28;20437;-70
2022/01/02 03:12:09;;;;;;;3.57;2.67;;;10.30;99.90;;;;;;5057980;28;20544;-70
2022/01/02 03:14:36;;;;;;;3.30;3.00;;;10.30;99.90;;;;;;5051480;28;20542;-70
2022/01/02 03:17:03;;;;;;;3.33;2.50;;;10.30;99.90;;;;;;5054713;28;20460;-72
2022/01/02 03:19:31;;;;;;;4.13;3.43;;;10.40;99.90;;;;;;5061108;28;20470;-70
2022/01/02 03:21:58;;;;;;;2.13;1.80;;;10.40;99.90;;;;;;5061713;28;21023;-70
2022/01/02 03:24:25;;;;;;;2.87;2.40;;;10.40;99.90;;;;;;5063315;28;20536;-70
2022/01/02 03:26:51;;;;;;;2.37;2.00;;;10.40;99.90;;;;;;5061019;28;20518;-70
2022/01/02 03:29:19;;;;;;;2.57;2.37;;;10.40;99.90;;;;;;5060368;28;20444;-70
2022/01/02 03:31:46;;;;;;;2.60;1.90;;;10.40;99.90;;;;;;5058073;28;20536;-70
2022/01/02 03:34:13;;;;;;;3.30;2.17;;;10.40;99.90;;;;;;5061895;28;20463;-71
2022/01/02 03:36:39;;;;;;;2.77;2.50;;;10.50;99.90;;;;;;5062286;28;20506;-70
2022/01/02 03:39:06;;;;;;;3.30;2.80;;;10.50;99.90;;;;;;5053788;28;20541;-70
2022/01/02 03:41:32;;;;;;;3.97;2.70;;;10.50;99.90;;;;;;5063346;28;20487;-70
2022/01/02 03:43:59;;;;;;;2.93;2.30;;;10.50;99.90;;;;;;5058759;28;20434;-70
2022/01/02 03:46:27;;;;;;;3.47;3.17;;;10.50;99.90;;;;;;5063272;28;20463;-70
2022/01/02 03:48:54;;;;;;;2.30;2.10;;;10.40;99.90;;;;;;5066198;28;21014;-70
2022/01/02 03:51:20;;;;;;;4.30;2.53;;;10.40;99.90;;;;;;5061513;28;20483;-70
2022/01/02 03:53:47;;;;;;;2.97;2.73;;;10.40;99.90;;;;;;5064672;28;20527;-72
2022/01/02 03:56:14;;;;;;;6.93;2.53;;;10.40;99.90;;;;;;5060537;28;20464;-73
2022/01/02 03:58:40;;;;;;;3.53;3.20;;;10.40;99.90;;;;;;5063754;28;20459;-70
2022/01/02 04:01:07;;;;;;;3.57;2.60;;;10.40;99.90;;;;;;5065268;28;20479;-71
2022/01/02 04:03:35;;;;;;;3.97;2.87;;;10.40;99.90;;;;;;5061691;28;20493;-70
2022/01/02 04:06:02;;;;;;;3.53;2.70;;;10.40;99.90;;;;;;5056404;28;20518;-71
2022/01/02 04:08:28;;;;;;;2.80;2.37;;;10.40;99.90;;;;;;5066719;28;20590;-71
2022/01/02 04:10:55;;;;;;;4.67;2.73;;;10.40;99.90;;;;;;5061005;28;20471;-72
2022/01/02 04:13:22;;;;;;;2.60;2.40;;;10.40;99.90;;;;;;5066025;28;20457;-72
2022/01/02 04:15:48;;;;;;;3.13;2.90;;;10.40;99.90;;;;;;5059638;28;20463;-72
2022/01/02 04:18:15;;;;;;;2.23;2.03;;;10.30;99.90;;;;;;5061290;28;20459;-72
2022/01/02 04:20:43;;;;;;;2.93;2.63;;;10.30;99.90;;;;;;5060464;28;20476;-71
2022/01/02 04:23:09;;;;;;;3.43;2.87;;;10.30;99.90;;;;;;5065558;28;20486;-70
2022/01/02 04:25:36;;;;;;;3.30;2.50;;;10.30;99.90;;;;;;5061588;28;20828;-70
2022/01/02 04:28:03;;;;;;;2.57;2.13;;;10.30;99.90;;;;;;5056083;28;20763;-70
2022/01/02 04:30:29;;;;;;;3.03;2.73;;;10.30;99.90;;;;;;5064969;28;20502;-72
2022/01/02 04:32:56;;;;;;;3.23;1.97;;;10.30;99.90;;;;;;5064350;28;20777;-72
2022/01/02 04:35:23;;;;;;;2.70;2.43;;;10.30;99.90;;;;;;5064634;28;20463;-72
2022/01/02 04:37:51;;;;;;;3.90;2.20;;;10.30;99.90;;;;;;5066029;28;20459;-72
2022/01/02 04:40:17;;;;;;;3.00;2.80;;;10.30;99.90;;;;;;5063283;28;20845;-71
2022/01/02 04:42:44;;;;;;;3.77;2.97;;;10.40;99.90;;;;;;5058880;28;20536;-71
2022/01/02 04:45:11;;;;;;;3.33;2.63;;;10.30;99.90;;;;;;5058472;28;20467;-71
2022/01/02 04:47:37;;;;;;;4.17;3.00;;;10.30;99.90;;;;;;5066234;28;20543;-72
2022/01/02 04:50:05;;;;;;;3.53;2.97;;;10.30;99.90;;;;;;5065728;28;20509;-72
2022/01/02 04:52:32;;;;;;;2.30;2.03;;;10.30;99.90;;;;;;5063318;28;20810;-72
2022/01/02 04:55:00;;;;;;;2.97;2.50;;;10.30;99.90;;;;;;5062077;28;20451;-72
2022/01/02 04:57:27;;;;;;;3.57;2.60;;;10.20;99.90;;;;;;5064974;28;20948;-72
2022/01/02 04:59:53;;;;;;;3.70;3.40;;;10.20;99.90;;;;;;5064698;28;20483;-72
2022/01/02 05:02:20;;;;;;;5.17;2.10;;;10.20;99.90;;;;;;5057853;28;20592;-71
2022/01/02 05:04:47;;;;;;;3.37;3.07;;;10.20;99.90;;;;;;5063239;28;20520;-72
2022/01/02 05:07:14;;;;;;;3.37;2.60;;;10.20;99.90;;;;;;5064725;28;20452;-71
2022/01/02 05:09:41;;;;;;;3.47;2.30;;;10.10;99.90;;;;;;5056779;28;20486;-72
2022/01/02 05:12:10;;;;;;;3.80;3.20;;;10.10;99.90;;;;;;5063340;28;20598;-71
2022/01/02 05:14:37;;;;;;;3.20;2.20;;;10.10;99.90;;;;;;5064938;28;20456;-71
2022/01/02 05:17:04;;;;;;;3.00;2.73;;;10.10;99.90;;;;;;5064702;28;20513;-71
2022/01/02 05:19:31;;;;;;;2.90;2.70;;;10.10;99.90;;;;;;5063156;28;20528;-71
2022/01/02 05:21:58;;;;;;;2.70;2.43;;;10.10;99.90;;;;;;5065204;28;20483;-71
2022/01/02 05:24:25;;;;;;;2.70;2.50;;;10.00;99.90;;;;;;5063714;28;20618;-71
2022/01/02 05:26:53;;;;;;;4.57;2.87;;;10.00;99.90;;;;;;5061164;28;20446;-71
2022/01/02 05:29:21;;;;;;;2.93;2.43;;;10.00;99.90;;;;;;5060825;28;20455;-70
2022/01/02 05:31:48;;;;;;;2.70;2.37;;;10.00;99.90;;;;;;5057687;28;20451;-71
2022/01/02 05:34:15;;;;;;;4.53;2.60;;;10.00;99.90;;;;;;5063183;28;20516;-71
2022/01/02 05:36:48;;;;;;;4.10;2.80;;;10.00;99.90;;;;;;5057016;28;20513;-71
2022/01/02 05:39:15;;;;;;;4.40;3.20;;;10.10;99.90;;;;;;5059371;28;20517;-71
2022/01/02 05:41:42;;;;;;;2.90;2.20;;;10.10;99.90;;;;;;5059231;28;20969;-71
2022/01/02 05:44:08;;;;;;;3.30;3.00;;;10.10;99.90;;;;;;5063071;28;20933;-71
2022/01/02 05:46:36;;;;;;;3.17;2.97;;;10.00;99.90;;;;;;5062939;28;20926;-72
2022/01/02 05:49:03;;;;;;;5.67;3.87;;;10.00;99.90;;;;;;5058292;28;20983;-71
2022/01/02 05:51:30;;;;;;;3.73;2.67;;;10.00;99.90;;;;;;5063343;28;21125;-71
2022/01/02 05:53:56;;;;;;;2.20;1.87;;;10.00;99.90;;;;;;5061760;28;20540;-71
2022/01/02 05:56:23;;;;;;;2.47;2.27;;;10.00;99.90;;;;;;5063303;28;20463;-71
2022/01/02 05:58:50;;;;;;;4.77;2.87;;;10.00;99.90;;;;;;5062292;28;21002;-71
2022/01/02 06:01:16;;;;;;;3.10;2.03;;;9.90;99.90;;;;;;5063264;28;20476;-71
2022/01/02 06:03:44;;;;;;;4.77;3.20;;;9.90;99.90;;;;;;5052439;28;21172;-71
2022/01/02 06:06:11;;;;;;;2.70;2.40;;;9.90;99.90;;;;;;5062514;28;20458;-71
2022/01/02 06:08:38;;;;;;;4.73;3.57;;;9.90;99.90;;;;;;5055530;28;20459;-70
2022/01/02 06:11:04;;;;;;;5.83;2.00;;;9.90;99.90;;;;;;5058527;28;20459;-70
2022/01/02 06:13:31;;;;;;;4.33;1.90;;;9.90;99.90;;;;;;5055397;28;20825;-70
2022/01/02 06:15:58;;;;;;;3.07;2.77;;;9.90;99.90;;;;;;5059133;28;20463;-70
2022/01/02 06:18:24;;;;;;;3.57;2.20;;;9.90;99.90;;;;;;5063403;28;20566;-70
2022/01/02 06:20:52;;;;;;;6.80;2.30;;;9.90;99.90;;;;;;5059092;28;20483;-70
2022/01/02 06:23:19;;;;;;;2.20;2.00;;;9.90;99.90;;;;;;5061860;28;20546;-71
2022/01/02 06:25:46;;;;;;;2.67;2.30;;;9.90;99.90;;;;;;5061982;28;20459;-71
2022/01/02 06:28:13;;;;;;;3.87;2.97;;;9.90;99.90;;;;;;5059957;28;20471;-70
2022/01/02 06:30:40;;;;;;;2.67;2.23;;;9.90;99.90;;;;;;5058156;28;20996;-71
2022/01/02 06:33:06;;;;;;;3.23;2.60;;;9.90;99.90;;;;;;5059501;28;20605;-71
2022/01/02 06:35:35;;;;;;;3.70;3.37;;;9.90;99.90;;;;;;5062588;28;20467;-71
2022/01/02 06:38:10;;;;;;;3.87;2.50;;;9.90;99.90;;;;;;5055613;28;20468;-71
2022/01/02 06:40:37;;;;;;;3.70;3.40;;;9.90;99.90;;;;;;5053418;28;21614;-71
2022/01/02 06:43:04;;;;;;;2.60;2.20;;;9.90;99.90;;;;;;5060786;28;20479;-71
2022/01/02 06:45:31;;;;;;;5.67;2.60;;;9.90;99.90;;;;;;5061396;28;20459;-71
2022/01/02 06:47:57;;;;;;;2.80;2.43;;;9.80;99.90;;;;;;5059413;28;20521;-71
2022/01/02 06:50:24;;;;;;;2.43;2.23;;;9.90;99.90;;;;;;5060286;28;21048;-71
2022/01/02 06:52:51;;;;;;;3.30;3.10;;;9.90;99.90;;;;;;5052744;28;20521;-71
2022/01/02 06:55:19;;;;;;;3.60;2.53;;;9.90;99.90;;;;;;5061544;28;20467;-71
2022/01/02 06:57:45;;;;;;;3.17;2.33;;;9.90;99.90;;;;;;5062645;28;20459;-71
2022/01/02 07:00:13;;;;;;;4.43;2.40;;;9.90;99.90;;;;;;5057901;28;21109;-71
2022/01/02 07:02:39;;;;;;;5.33;2.67;;;9.90;99.90;;;;;;5063393;28;20570;-71
2022/01/02 07:05:07;;;;;;;5.60;3.20;;;9.90;99.90;;;;;;5058088;28;20513;-71
2022/01/02 07:07:33;;;;;;;4.30;2.70;;;10.00;99.90;;;;;;5058930;28;20834;-71
2022/01/02 07:10:00;;;;;;;4.23;3.80;;;9.90;99.90;;;;;;5057027;28;20471;-70
2022/01/02 07:12:28;;;;;;;3.77;3.10;;;9.90;99.90;;;;;;5060109;28;20455;-71
2022/01/02 07:14:54;;;;;;;3.50;2.90;;;9.90;99.90;;;;;;5054291;28;20468;-70
2022/01/02 07:17:21;;;;;;;3.63;2.60;;;9.90;99.90;;;;;;5055087;28;20459;-70
2022/01/02 07:19:48;;;;;;;2.53;2.27;;;10.00;99.90;;;;;;5058507;28;20893;-70
2022/01/02 07:22:14;;;;;;;3.07;2.70;;;10.00;99.90;;;;;;5061558;28;20483;-70
2022/01/02 07:24:41;;;;;;;3.73;2.17;;;10.10;99.90;;;;;;5062221;28;20463;-69
2022/01/02 07:27:08;;;;;;;5.97;3.17;;;10.10;99.90;;;;;;5067095;28;21098;-71
2022/01/02 07:29:36;;;;;;;1.90;1.80;;;10.10;99.90;;;;;;5062238;28;20466;-70
2022/01/02 07:32:03;;;;;;;3.00;2.57;;;10.10;99.90;;;;;;5065428;28;21290;-70
2022/01/02 07:34:29;;;;;;;2.37;2.17;;;10.10;99.90;;;;;;5057031;28;20524;-70
2022/01/02 07:36:56;;;;;;;2.27;1.80;;;10.10;99.90;;;;;;5063757;28;20548;-70
2022/01/02 07:39:22;;;;;;;3.50;2.37;;;10.20;99.90;;;;;;5062550;28;20975;-70
2022/01/02 07:41:49;;;;;;;2.50;1.87;;;10.20;99.90;;;;;;5068273;28;20524;-69
2022/01/02 07:44:16;;;;;;;1.70;1.43;;;10.20;99.90;;;;;;5066243;28;20580;-69
2022/01/02 07:46:44;;;;;;;2.90;2.70;;;10.20;99.90;;;;;;5066691;28;20832;-70
2022/01/02 07:49:10;;;;;;;3.03;2.63;;;10.20;99.90;;;;;;5064192;28;20434;-70
2022/01/02 07:51:37;;;;;;;2.17;1.67;;;10.20;99.90;;;;;;5061089;28;20611;-73
2022/01/02 07:54:04;;;;;;;2.23;1.80;;;10.20;99.90;;;;;;5057337;28;20471;-70
2022/01/02 07:56:31;;;;;;;2.77;1.70;;;10.20;99.90;;;;;;5064495;28;20505;-70
2022/01/02 07:58:59;;;;;;;1.60;1.50;;;10.10;99.90;;;;;;5059658;28;20438;-71
2022/01/02 08:01:26;;;;;;;2.07;1.87;;;10.20;99.90;;;;;;5060452;28;20574;-71
2022/01/02 08:03:54;;;;;;;3.80;2.90;;;10.20;99.90;;;;;;5056466;28;20482;-71
2022/01/02 08:06:21;;;;;;;2.70;2.03;;;10.20;99.90;;;;;;5058277;28;20582;-70
2022/01/02 08:08:47;;;;;;;2.43;2.20;;;10.20;99.90;;;;;;5062632;28;20508;-71
2022/01/02 08:11:15;;;;;;;2.07;1.90;;;10.20;99.90;;;;;;5065457;28;20494;-70
2022/01/02 08:13:42;;;;;;;2.53;2.17;;;10.20;99.90;;;;;;5060548;28;20460;-70
2022/01/02 08:16:09;;;;;;;4.27;2.70;;;10.30;99.90;;;;;;5058751;28;20465;-70
2022/01/02 08:18:35;;;;;;;1.97;1.80;;;10.30;99.90;;;;;;5060315;28;20909;-71
2022/01/02 08:21:03;;;;;;;2.13;1.60;;;10.30;99.90;;;;;;5060233;28;20483;-71
2022/01/02 08:23:30;;;;;;;2.03;1.63;;;10.30;99.90;;;;;;5064114;28;20495;-71
2022/01/02 08:25:57;;;;;;;2.47;2.23;;;10.30;99.90;;;;;;5065873;28;20467;-71
2022/01/02 08:28:23;;;;;;;3.83;2.20;;;10.30;99.90;;;;;;5060525;28;20466;-71
2022/01/02 08:30:50;;;;;;;1.70;1.60;;;10.30;99.90;;;;;;5060800;28;20479;-70
2022/01/02 08:33:18;;;;;;;1.90;1.80;;;10.40;99.90;;;;;;5061667;28;20489;-66
2022/01/02 08:35:46;;;;;;;2.03;1.93;;;10.40;99.90;;;;;;5056854;28;20468;-69
2022/01/02 08:38:14;;;;;;;1.50;1.30;;;10.40;99.90;;;;;;5062767;28;20459;-70
2022/01/02 08:40:41;;;;;;;3.17;2.77;;;10.40;99.90;;;;;;5063583;28;20503;-70
2022/01/02 08:43:09;;;;;;;2.13;1.93;;;10.40;99.90;;;;;;5060867;28;20612;-71
2022/01/02 08:45:38;;;;;;;2.53;1.90;;;10.40;99.90;;;;;;5059692;28;20539;-72
2022/01/02 08:48:05;;;;;;;2.43;2.07;;;10.40;99.90;;;;;;5063503;28;20955;-71
2022/01/02 08:50:32;;;;;;;2.77;2.17;;;10.50;99.90;;;;;;5058369;28;21177;-73
2022/01/02 08:52:59;;;;;;;2.93;1.47;;;10.50;99.90;;;;;;5050392;28;20448;-72
2022/01/02 08:55:27;;;;;;;2.00;1.63;;;10.50;99.90;;;;;;5058705;28;20526;-72
2022/01/02 08:57:53;;;;;;;2.60;1.67;;;10.50;99.90;;;;;;5064577;28;20502;-73
2022/01/02 09:00:20;;;;;;;3.13;1.60;;;10.50;99.90;;;;;;5065203;28;20524;-71
2022/01/02 09:02:47;;;;;;;2.67;2.47;;;10.50;99.90;;;;;;5066883;28;20958;-72
2022/01/02 09:05:13;;;;;;;1.90;1.80;;;10.50;99.90;;;;;;5063599;28;20517;-72
2022/01/02 09:07:40;;;;;;;3.73;2.80;;;10.70;99.90;;;;;;5062524;28;20459;-68
2022/01/02 09:10:07;;;;;;;1.93;1.50;;;10.70;99.90;;;;;;5056268;28;20489;-68
2022/01/02 09:12:35;;;;;;;1.87;1.77;;;10.70;99.90;;;;;;5059555;28;20576;-68
2022/01/02 09:15:02;;;;;;;2.90;1.27;;;10.70;99.90;;;;;;5072128;28;20458;-68
2022/01/02 09:17:29;;;;;;;1.53;1.23;;;10.70;99.90;;;;;;5069808;28;20443;-68
2022/01/02 09:19:57;;;;;;;1.90;1.40;;;10.70;99.90;;;;;;5059353;28;20471;-69
2022/01/02 09:22:23;;;;;;;1.70;1.60;;;10.70;99.90;;;;;;5053875;28;21013;-69
2022/01/02 09:24:52;;;;;;;2.27;1.70;;;10.70;99.90;;;;;;5066347;28;21034;-69
2022/01/02 09:27:18;;;;;;;1.90;1.80;;;10.70;99.90;;;;;;5064832;28;20546;-68
2022/01/02 09:29:46;;;;;;;2.63;1.77;;;10.70;99.90;;;;;;5066119;28;20450;-68
2022/01/02 09:32:13;;;;;;;2.83;1.55;;;10.70;99.90;;;;;;5064466;28;20428;-69
2022/01/02 09:34:40;;;;;;;1.50;1.20;;;10.70;99.90;;;;;;5052663;28;20599;-68
2022/01/02 09:37:07;;;;;;;6.60;2.10;;;10.70;99.90;;;;;;5065092;28;20493;-68
2022/01/02 09:39:34;;;;;;;2.10;1.90;;;10.70;99.90;;;;;;5065063;28;20526;-69
2022/01/02 09:42:01;;;;;;;5.70;2.23;;;10.70;99.90;;;;;;5062069;28;20517;-69
2022/01/02 09:44:29;;;;;;;2.50;1.70;;;10.70;99.90;;;;;;5064136;28;20484;-68
2022/01/02 09:46:58;;;;;;;1.67;1.57;;;10.70;99.90;;;;;;5065436;28;20554;-68
2022/01/02 09:49:24;;;;;;;3.03;1.70;;;10.80;99.90;;;;;;5052706;28;20452;-68
2022/01/02 09:51:51;;;;;;;2.50;2.30;;;10.80;99.90;;;;;;5065121;28;20491;-70
2022/01/02 09:54:18;;;;;;;1.77;1.67;;;10.90;99.90;;;;;;5055621;28;20464;-66
2022/01/02 09:56:45;;;;;;;1.33;1.23;;;10.90;99.90;;;;;;5056799;28;20455;-67
2022/01/02 09:59:12;;;;;;;1.57;0.90;;;11.00;99.90;;;;;;5050925;28;20436;-67
2022/01/02 10:01:38;;;;;;;1.70;1.23;;;11.10;99.90;;;;;;5048448;28;20534;-68
2022/01/02 10:04:06;;;;;;;2.03;1.83;;;11.20;99.90;;;;;;5049577;28;20487;-68
2022/01/02 10:06:41;;;;;;;1.00;0.80;;;11.40;99.90;;;;;;5055626;28;20457;-67
2022/01/02 10:09:16;;;;;;;1.30;1.20;;;11.40;99.90;;;;;;5057976;28;20452;-70
2022/01/02 10:11:43;;;;;;;2.40;1.53;;;11.50;99.90;;;;;;5051090;28;20465;-71
2022/01/02 10:14:10;;;;;;;1.70;1.60;;;11.50;99.90;;;;;;5045885;28;21246;-72
2022/01/02 10:16:39;;;;;;;1.63;1.20;;;11.50;99.90;;;;;;5045680;28;20456;-71
2022/01/02 10:19:21;;;;;;;1.30;1.20;;;11.60;99.90;;;;;;5047158;28;20449;-69
2022/01/02 10:21:57;;;;;;;1.60;1.50;;;11.60;99.90;;;;;;5059779;28;20500;-69
2022/01/02 10:24:27;;;;;;;7.93;2.53;;;11.60;99.90;;;;;;5058330;28;20880;-72
2022/01/02 10:27:13;;;;;;;2.13;1.50;;;11.60;99.90;;;;;;5048280;28;20548;-72
2022/01/02 10:29:42;;;;;;;1.57;1.47;;;11.70;99.90;;;;;;5046475;28;20472;-71
2022/01/02 10:32:30;;;;;;;4.40;2.27;;;11.70;99.90;;;;;;5052161;28;20419;-70
2022/01/02 10:35:10;;;;;;;2.23;1.93;;;11.70;99.90;;;;;;5055932;28;20460;-71
2022/01/02 10:37:37;;;;;;;2.00;1.00;;;11.70;99.90;;;;;;5058820;28;20956;-72
2022/01/02 10:40:05;;;;;;;1.77;1.50;;;11.80;99.90;;;;;;5056111;28;20624;-71
2022/01/02 10:42:42;;;;;;;1.63;1.33;;;11.80;99.90;;;;;;5059705;28;20531;-71
2022/01/02 10:45:09;;;;;;;2.07;1.87;;;11.80;99.90;;;;;;5053929;28;20484;-72
2022/01/02 10:47:36;;;;;;;3.23;1.53;;;11.80;99.90;;;;;;5059569;28;20485;-72
2022/01/02 10:50:06;;;;;;;1.87;0.97;;;12.10;99.90;;;;;;5061600;28;20837;-72
2022/01/02 10:52:38;;;;;;;0.93;0.90;;;12.40;99.90;;;;;;5050899;28;20477;-73
2022/01/02 10:55:14;;;;;;;1.10;1.00;;;12.80;99.90;;;;;;5065473;28;20557;-73
2022/01/02 10:57:42;;;;;;;1.57;1.47;;;13.20;99.90;;;;;;5057516;28;20442;-72
2022/01/02 11:00:10;;;;;;;1.50;1.40;;;13.40;99.90;;;;;;5068426;28;20475;-72
2022/01/02 11:02:38;;;;;;;1.63;1.30;;;13.60;99.90;;;;;;5065220;28;20458;-72
2022/01/02 11:05:08;;;;;;;3.40;1.67;;;13.80;99.90;;;;;;5058339;28;20458;-73
2022/01/02 11:07:40;;;;;;;3.70;1.43;;;13.90;99.90;;;;;;5068978;28;21006;-71
2022/01/02 11:10:08;;;;;;;1.57;1.47;;;14.00;99.90;;;;;;5058638;28;20468;-71
2022/01/02 11:12:37;;;;;;;2.03;1.13;;;14.10;99.90;;;;;;5049329;28;20506;-71
2022/01/02 11:15:07;;;;;;;9.73;1.77;;;14.30;99.90;;;;;;5062586;28;20423;-71
2022/01/02 11:17:35;;;;;;;3.10;1.93;;;14.50;99.90;;;;;;5062773;28;20478;-72
2022/01/02 11:20:04;;;;;;;1.50;1.23;;;14.70;99.90;;;;;;5049664;28;20997;-71
2022/01/02 11:22:36;;;;;;;1.10;1.00;;;14.80;99.90;;;;;;5058824;28;20575;-71
2022/01/02 11:25:13;;;;;;;2.53;1.30;;;14.90;99.90;;;;;;5062865;28;21000;-71
2022/01/02 11:27:44;;;;;;;1.30;1.20;;;14.90;99.90;;;;;;5053460;28;20472;-70
2022/01/02 11:30:35;;;;;;;1.50;1.40;;;14.90;99.90;;;;;;5059022;28;20518;-71
2022/01/02 11:33:02;;;;;;;5.97;1.33;;;14.80;99.90;;;;;;5059023;28;20463;-70
2022/01/02 11:35:31;;;;;;;1.50;1.27;;;14.90;99.90;;;;;;5063005;28;20438;-70
2022/01/02 11:38:01;;;;;;;2.03;1.20;;;14.90;99.90;;;;;;5055901;28;20971;-70
2022/01/02 11:43:53;;;;;;;1.20;1.10;;;14.90;99.90;;;;;;5100432;27;20609;-69
2022/01/02 11:46:25;;;;;;;2.50;1.37;;;14.80;99.90;;;;;;5070416;28;20451;-69
2022/01/02 11:49:15;;;;;;;0.93;0.80;;;14.80;99.90;;;;;;5082428;28;20442;-70
2022/01/02 11:52:02;;;;;;;1.67;1.57;;;14.90;99.90;;;;;;5070658;28;20470;-75
2022/01/02 11:54:48;;;;;;;3.07;1.90;;;14.80;99.90;;;;;;5065183;28;20447;-69
2022/01/02 11:57:55;;;;;;;1.67;1.50;;;14.70;99.90;;;;;;5069218;28;20496;-68
2022/01/02 12:00:43;;;;;;;3.53;2.00;;;14.60;99.90;;;;;;5066413;28;20495;-74
2022/01/02 12:03:48;;;;;;;1.67;0.90;;;14.50;99.90;;;;;;5078862;28;20590;-70
2022/01/02 12:06:34;;;;;;;1.20;0.93;;;14.60;99.90;;;;;;5073409;28;20506;-68
2022/01/02 12:09:04;;;;;;;2.20;2.00;;;14.60;99.90;;;;;;5076679;28;20466;-70
2022/01/02 12:11:42;;;;;;;1.30;1.20;;;14.60;99.90;;;;;;5082601;28;20554;-70
2022/01/02 12:14:10;;;;;;;2.33;1.67;;;14.50;99.90;;;;;;5072774;28;20455;-70
2022/01/02 12:16:40;;;;;;;2.07;1.80;;;14.50;99.90;;;;;;5079806;28;20775;-70
2022/01/02 12:19:08;;;;;;;1.80;1.57;;;14.40;99.90;;;;;;5077235;28;20447;-68
2022/01/02 12:21:36;;;;;;;5.37;1.80;;;14.20;99.90;;;;;;5078725;28;20573;-68
2022/01/02 12:24:07;;;;;;;2.67;1.40;;;14.10;99.90;;;;;;5078945;28;20422;-71
2022/01/02 12:26:39;;;;;;;2.90;1.57;;;14.10;99.90;;;;;;5064889;28;20604;-69
2022/01/02 12:29:07;;;;;;;1.80;1.50;;;14.10;99.90;;;;;;5073862;28;20824;-70
2022/01/02 12:31:35;;;;;;;3.20;1.20;;;14.00;99.90;;;;;;5076675;28;20936;-70
2022/01/02 12:34:09;;;;;;;3.13;2.57;;;14.00;99.90;;;;;;5077641;28;20430;-70
2022/01/02 12:36:37;;;;;;;0.80;0.80;;;14.00;99.90;;;;;;5085117;28;20454;-69
2022/01/02 12:39:07;;;;;;;1.10;1.00;;;14.00;99.90;;;;;;5075204;28;20447;-69
2022/01/02 12:41:35;;;;;;;3.30;1.47;;;14.00;99.90;;;;;;5089142;28;20571;-68
2022/01/02 12:44:04;;;;;;;3.03;1.50;;;14.00;99.90;;;;;;5084587;28;20447;-68
2022/01/02 12:46:40;;;;;;;3.03;1.30;;;14.00;99.90;;;;;;5089519;28;20477;-69
2022/01/02 12:49:10;;;;;;;2.60;1.10;;;14.10;99.90;;;;;;5080532;28;20443;-69
2022/01/02 12:51:38;;;;;;;2.17;2.00;;;14.40;99.90;;;;;;5070118;28;20482;-70
2022/01/02 12:54:06;;;;;;;1.30;1.07;;;14.70;99.90;;;;;;5071549;28;20455;-70
2022/01/02 12:56:39;;;;;;;1.23;1.13;;;14.70;99.90;;;;;;5066168;28;20509;-70
2022/01/02 12:59:34;;;;;;;1.33;1.17;;;14.60;99.90;;;;;;5063797;28;20490;-69
2022/01/02 13:02:03;;;;;;;2.37;1.10;;;14.40;99.90;;;;;;5027782;28;20532;-69
2022/01/02 13:04:33;;;;;;;6.03;2.03;;;14.30;99.90;;;;;;5062523;28;20859;-70